sensor_id;sensor_type;location;lat;lon;timestamp;temperature;humidity
12841;DHT22;6487;48.626;12.486;2023-03-31T00:01:16;7.80;99.90
12841;DHT22;6487;48.626;12.486;2023-03-31T00:03:45;7.80;99.90
12841;DHT22;6487;48.626;12.486;2023-03-31T00:06:13;7.80;99.90
12841;DHT22;6487;48.626;12.486;2023-03-31T00:08:47;7.70;99.90
12841;DHT22;6487;48.626;12.486;2023-03-31T00:11:18;7.70;99.90
12841;DHT22;6487;48.626;12.486;2023-03-31T00:13:51;7.80;99.90
12841;DHT22;6487;48.626;12.486;2023-03-31T00:16:20;7.80;99.90
12841;DHT22;6487;48.626;12.486;2023-03-31T00:18:48;7.90;99.90
12841;DHT22;6487;48.626;12.486;2023-03-31T00:21:19;7.90;99.90
12841;DHT22;6487;48.626;12.486;2023-03-31T00:24:01;7.90;99.90
12841;DHT22;6487;48.626;12.486;2023-03-31T00:26:33;7.70;99.90
12841;DHT22;6487;48.626;12.486;2023-03-31T00:29:05;7.60;99.90
12841;DHT22;6487;48.626;12.486;2023-03-31T00:31:35;7.60;99.90
12841;DHT22;6487;48.626;12.486;2023-03-31T00:34:05;7.60;99.90
12841;DHT22;6487;48.626;12.486;2023-03-31T00:36:33;7.60;99.90
12841;DHT22;6487;48.626;12.486;2023-03-31T00:39:18;7.60;99.90
12841;DHT22;6487;48.626;12.486;2023-03-31T00:41:47;7.60;99.90
12841;DHT22;6487;48.626;12.486;2023-03-31T00:44:19;7.60;99.90
12841;DHT22;6487;48.626;12.486;2023-03-31T00:46:52;7.70;99.90
12841;DHT22;6487;48.626;12.486;2023-03-31T00:49:26;7.80;99.90
12841;DHT22;6487;48.626;12.486;2023-03-31T00:52:00;7.80;99.90
12841;DHT22;6487;48.626;12.486;2023-03-31T00:54:33;7.80;99.90
12841;DHT22;6487;48.626;12.486;2023-03-31T00:57:04;7.80;99.90
12841;DHT22;6487;48.626;12.486;2023-03-31T00:59:38;7.90;99.90
12841;DHT22;6487;48.626;12.486;2023-03-31T01:02:08;7.80;99.90
12841;DHT22;6487;48.626;12.486;2023-03-31T01:04:43;7.80;99.90
12841;DHT22;6487;48.626;12.486;2023-03-31T01:07:19;7.80;99.90
12841;DHT22;6487;48.626;12.486;2023-03-31T01:09:55;7.80;99.90
12841;DHT22;6487;48.626;12.486;2023-03-31T01:12:26;7.80;99.90
12841;DHT22;6487;48.626;12.486;2023-03-31T01:14:56;7.80;99.90
12841;DHT22;6487;48.626;12.486;2023-03-31T01:17:24;7.90;99.90
12841;DHT22;6487;48.626;12.486;2023-03-31T01:20:04;7.80;99.90
12841;DHT22;6487;48.626;12.486;2023-03-31T01:26:41;7.80;99.90
12841;DHT22;6487;48.626;12.486;2023-03-31T01:29:32;7.80;99.90
12841;DHT22;6487;48.626;12.486;2023-03-31T01:32:45;7.80;99.90
12841;DHT22;6487;48.626;12.486;2023-03-31T01:35:57;7.80;99.90
12841;DHT22;6487;48.626;12.486;2023-03-31T01:42:12;7.80;99.90
12841;DHT22;6487;48.626;12.486;2023-03-31T01:44:45;7.80;99.90
12841;DHT22;6487;48.626;12.486;2023-03-31T01:47:17;7.80;99.90
12841;DHT22;6487;48.626;12.486;2023-03-31T01:49:56;7.80;99.90
12841;DHT22;6487;48.626;12.486;2023-03-31T01:52:37;7.70;99.90
12841;DHT22;6487;48.626;12.486;2023-03-31T01:55:13;7.70;99.90
12841;DHT22;6487;48.626;12.486;2023-03-31T01:57:48;7.70;99.90
12841;DHT22;6487;48.626;12.486;2023-03-31T02:00:22;7.60;99.90
12841;DHT22;6487;48.626;12.486;2023-03-31T02:02:58;7.60;99.90
12841;DHT22;6487;48.626;12.486;2023-03-31T02:05:36;7.50;99.90
12841;DHT22;6487;48.626;12.486;2023-03-31T02:08:10;7.60;99.90
12841;DHT22;6487;48.626;12.486;2023-03-31T02:10:44;7.50;99.90
12841;DHT22;6487;48.626;12.486;2023-03-31T02:13:16;7.60;99.90
12841;DHT22;6487;48.626;12.486;2023-03-31T02:15:49;7.50;99.90
12841;DHT22;6487;48.626;12.486;2023-03-31T02:18:24;7.50;99.90
12841;DHT22;6487;48.626;12.486;2023-03-31T02:20:59;7.50;99.90
12841;DHT22;6487;48.626;12.486;2023-03-31T02:23:32;7.50;99.90
12841;DHT22;6487;48.626;12.486;2023-03-31T02:26:04;7.50;99.90
12841;DHT22;6487;48.626;12.486;2023-03-31T02:28:36;7.40;99.90
12841;DHT22;6487;48.626;12.486;2023-03-31T02:31:12;7.30;99.90
12841;DHT22;6487;48.626;12.486;2023-03-31T02:33:49;7.30;99.90
12841;DHT22;6487;48.626;12.486;2023-03-31T02:36:17;7.30;99.90
12841;DHT22;6487;48.626;12.486;2023-03-31T02:38:51;7.30;99.90
12841;DHT22;6487;48.626;12.486;2023-03-31T02:41:22;7.40;99.90
12841;DHT22;6487;48.626;12.486;2023-03-31T02:43:52;7.40;99.90
12841;DHT22;6487;48.626;12.486;2023-03-31T02:46:20;7.40;99.90
12841;DHT22;6487;48.626;12.486;2023-03-31T02:48:53;7.40;99.90
12841;DHT22;6487;48.626;12.486;2023-03-31T02:57:56;7.40;99.90
12841;DHT22;6487;48.626;12.486;2023-03-31T03:00:57;7.40;99.90
12841;DHT22;6487;48.626;12.486;2023-03-31T03:03:40;7.30;99.90
12841;DHT22;6487;48.626;12.486;2023-03-31T03:06:21;7.40;99.90
12841;DHT22;6487;48.626;12.486;2023-03-31T03:09:05;7.30;99.90
12841;DHT22;6487;48.626;12.486;2023-03-31T03:11:45;7.30;99.90
12841;DHT22;6487;48.626;12.486;2023-03-31T03:14:22;7.30;99.90
12841;DHT22;6487;48.626;12.486;2023-03-31T03:16:58;7.30;99.90
12841;DHT22;6487;48.626;12.486;2023-03-31T03:19:29;7.40;99.90
12841;DHT22;6487;48.626;12.486;2023-03-31T03:21:57;7.30;99.90
12841;DHT22;6487;48.626;12.486;2023-03-31T03:24:26;7.40;99.90
12841;DHT22;6487;48.626;12.486;2023-03-31T03:26:55;7.40;99.90
12841;DHT22;6487;48.626;12.486;2023-03-31T03:29:24;7.40;99.90
12841;DHT22;6487;48.626;12.486;2023-03-31T03:31:52;7.40;99.90
12841;DHT22;6487;48.626;12.486;2023-03-31T03:34:22;7.40;99.90
12841;DHT22;6487;48.626;12.486;2023-03-31T03:36:51;7.40;99.90
12841;DHT22;6487;48.626;12.486;2023-03-31T03:39:20;7.40;99.90
12841;DHT22;6487;48.626;12.486;2023-03-31T03:41:50;7.50;99.90
12841;DHT22;6487;48.626;12.486;2023-03-31T03:44:19;7.50;99.90
12841;DHT22;6487;48.626;12.486;2023-03-31T03:46:47;7.50;99.90
12841;DHT22;6487;48.626;12.486;2023-03-31T03:49:15;7.50;99.90
12841;DHT22;6487;48.626;12.486;2023-03-31T03:51:45;7.50;99.90
12841;DHT22;6487;48.626;12.486;2023-03-31T03:54:14;7.50;99.90
12841;DHT22;6487;48.626;12.486;2023-03-31T03:56:42;7.50;99.90
12841;DHT22;6487;48.626;12.486;2023-03-31T03:59:11;7.50;99.90
12841;DHT22;6487;48.626;12.486;2023-03-31T04:01:42;7.50;99.90
12841;DHT22;6487;48.626;12.486;2023-03-31T04:04:13;7.60;99.90
12841;DHT22;6487;48.626;12.486;2023-03-31T04:06:42;7.60;99.90
12841;DHT22;6487;48.626;12.486;2023-03-31T04:09:11;7.60;99.90
12841;DHT22;6487;48.626;12.486;2023-03-31T04:11:40;7.60;99.90
12841;DHT22;6487;48.626;12.486;2023-03-31T04:14:08;7.60;99.90
12841;DHT22;6487;48.626;12.486;2023-03-31T04:16:37;7.50;99.90
12841;DHT22;6487;48.626;12.486;2023-03-31T04:19:06;7.30;99.90
12841;DHT22;6487;48.626;12.486;2023-03-31T04:21:37;7.40;99.90
12841;DHT22;6487;48.626;12.486;2023-03-31T04:24:12;7.40;99.90
12841;DHT22;6487;48.626;12.486;2023-03-31T04:26:47;7.50;99.90
12841;DHT22;6487;48.626;12.486;2023-03-31T04:29:19;7.60;99.90
12841;DHT22;6487;48.626;12.486;2023-03-31T04:31:48;7.60;99.90
12841;DHT22;6487;48.626;12.486;2023-03-31T04:34:18;7.60;99.90
12841;DHT22;6487;48.626;12.486;2023-03-31T04:36:51;7.60;99.90
12841;DHT22;6487;48.626;12.486;2023-03-31T04:39:23;7.60;99.90
12841;DHT22;6487;48.626;12.486;2023-03-31T04:41:58;7.70;99.90
12841;DHT22;6487;48.626;12.486;2023-03-31T04:44:27;7.70;99.90
12841;DHT22;6487;48.626;12.486;2023-03-31T04:46:56;7.70;99.90
12841;DHT22;6487;48.626;12.486;2023-03-31T04:49:28;7.60;99.90
12841;DHT22;6487;48.626;12.486;2023-03-31T04:51:59;7.70;99.90
12841;DHT22;6487;48.626;12.486;2023-03-31T04:54:31;7.70;99.90
12841;DHT22;6487;48.626;12.486;2023-03-31T04:57:00;7.80;99.90
12841;DHT22;6487;48.626;12.486;2023-03-31T04:59:28;7.80;99.90
12841;DHT22;6487;48.626;12.486;2023-03-31T05:01:56;7.70;99.90
12841;DHT22;6487;48.626;12.486;2023-03-31T05:04:25;7.70;99.90
12841;DHT22;6487;48.626;12.486;2023-03-31T05:06:53;7.80;99.90
12841;DHT22;6487;48.626;12.486;2023-03-31T05:09:22;7.80;99.90
12841;DHT22;6487;48.626;12.486;2023-03-31T05:11:51;7.70;99.90
12841;DHT22;6487;48.626;12.486;2023-03-31T05:14:20;7.80;99.90
12841;DHT22;6487;48.626;12.486;2023-03-31T05:16:48;7.80;99.90
12841;DHT22;6487;48.626;12.486;2023-03-31T05:19:17;7.80;99.90
12841;DHT22;6487;48.626;12.486;2023-03-31T05:21:45;7.80;99.90
12841;DHT22;6487;48.626;12.486;2023-03-31T05:24:14;7.90;99.90
12841;DHT22;6487;48.626;12.486;2023-03-31T05:26:43;8.00;99.90
12841;DHT22;6487;48.626;12.486;2023-03-31T05:29:17;8.00;99.90
12841;DHT22;6487;48.626;12.486;2023-03-31T05:31:48;8.00;99.90
12841;DHT22;6487;48.626;12.486;2023-03-31T05:34:17;8.10;99.90
12841;DHT22;6487;48.626;12.486;2023-03-31T05:36:45;8.10;99.90
12841;DHT22;6487;48.626;12.486;2023-03-31T05:39:16;8.20;99.90
12841;DHT22;6487;48.626;12.486;2023-03-31T05:41:44;8.20;99.90
12841;DHT22;6487;48.626;12.486;2023-03-31T05:44:12;8.20;99.90
12841;DHT22;6487;48.626;12.486;2023-03-31T05:46:42;8.30;99.90
12841;DHT22;6487;48.626;12.486;2023-03-31T05:49:11;8.40;99.90
12841;DHT22;6487;48.626;12.486;2023-03-31T05:51:41;8.30;99.90
12841;DHT22;6487;48.626;12.486;2023-03-31T05:54:10;8.30;99.90
12841;DHT22;6487;48.626;12.486;2023-03-31T05:56:39;8.40;99.90
12841;DHT22;6487;48.626;12.486;2023-03-31T05:59:07;8.40;99.90
12841;DHT22;6487;48.626;12.486;2023-03-31T06:01:35;8.40;99.90
12841;DHT22;6487;48.626;12.486;2023-03-31T06:04:05;8.50;99.90
12841;DHT22;6487;48.626;12.486;2023-03-31T06:06:34;8.50;99.90
12841;DHT22;6487;48.626;12.486;2023-03-31T06:09:04;8.50;99.90
12841;DHT22;6487;48.626;12.486;2023-03-31T06:11:33;8.50;99.90
12841;DHT22;6487;48.626;12.486;2023-03-31T06:14:01;8.40;99.90
12841;DHT22;6487;48.626;12.486;2023-03-31T06:16:30;8.40;99.90
12841;DHT22;6487;48.626;12.486;2023-03-31T06:19:00;8.40;99.90
12841;DHT22;6487;48.626;12.486;2023-03-31T06:21:30;8.60;99.90
12841;DHT22;6487;48.626;12.486;2023-03-31T06:23:59;8.40;99.90
12841;DHT22;6487;48.626;12.486;2023-03-31T06:26:27;8.40;99.90
12841;DHT22;6487;48.626;12.486;2023-03-31T06:28:56;8.40;99.90
12841;DHT22;6487;48.626;12.486;2023-03-31T06:31:24;8.40;99.90
12841;DHT22;6487;48.626;12.486;2023-03-31T06:33:53;8.50;99.90
12841;DHT22;6487;48.626;12.486;2023-03-31T06:36:21;8.50;99.90
12841;DHT22;6487;48.626;12.486;2023-03-31T06:38:51;8.40;99.90
12841;DHT22;6487;48.626;12.486;2023-03-31T06:41:20;8.40;99.90
12841;DHT22;6487;48.626;12.486;2023-03-31T06:43:49;8.40;99.90
12841;DHT22;6487;48.626;12.486;2023-03-31T06:46:17;8.50;99.90
12841;DHT22;6487;48.626;12.486;2023-03-31T06:48:46;8.50;99.90
12841;DHT22;6487;48.626;12.486;2023-03-31T06:51:14;8.60;99.90
12841;DHT22;6487;48.626;12.486;2023-03-31T06:53:43;8.70;99.90
12841;DHT22;6487;48.626;12.486;2023-03-31T06:56:12;8.70;99.90
12841;DHT22;6487;48.626;12.486;2023-03-31T06:58:41;8.80;99.90
12841;DHT22;6487;48.626;12.486;2023-03-31T07:01:09;8.80;99.90
12841;DHT22;6487;48.626;12.486;2023-03-31T07:03:38;8.80;99.90
12841;DHT22;6487;48.626;12.486;2023-03-31T07:06:07;8.90;99.90
12841;DHT22;6487;48.626;12.486;2023-03-31T07:08:35;9.00;99.90
12841;DHT22;6487;48.626;12.486;2023-03-31T07:11:06;9.00;99.90
12841;DHT22;6487;48.626;12.486;2023-03-31T07:13:36;9.00;99.90
12841;DHT22;6487;48.626;12.486;2023-03-31T07:16:05;9.10;99.90
12841;DHT22;6487;48.626;12.486;2023-03-31T07:18:35;9.20;99.90
12841;DHT22;6487;48.626;12.486;2023-03-31T07:21:07;9.30;99.90
12841;DHT22;6487;48.626;12.486;2023-03-31T07:23:39;9.30;99.90
12841;DHT22;6487;48.626;12.486;2023-03-31T07:26:07;9.30;99.90
12841;DHT22;6487;48.626;12.486;2023-03-31T07:28:38;9.40;99.90
12841;DHT22;6487;48.626;12.486;2023-03-31T07:31:10;9.40;99.90
12841;DHT22;6487;48.626;12.486;2023-03-31T07:33:39;9.40;99.90
12841;DHT22;6487;48.626;12.486;2023-03-31T07:36:09;9.50;99.90
12841;DHT22;6487;48.626;12.486;2023-03-31T07:38:40;9.60;99.90
12841;DHT22;6487;48.626;12.486;2023-03-31T07:41:11;9.60;99.90
12841;DHT22;6487;48.626;12.486;2023-03-31T07:43:41;9.50;99.90
12841;DHT22;6487;48.626;12.486;2023-03-31T07:46:15;9.60;99.90
12841;DHT22;6487;48.626;12.486;2023-03-31T07:48:45;9.50;99.90
12841;DHT22;6487;48.626;12.486;2023-03-31T07:51:14;9.40;99.90
12841;DHT22;6487;48.626;12.486;2023-03-31T07:53:44;9.50;99.90
12841;DHT22;6487;48.626;12.486;2023-03-31T07:56:12;9.50;99.90
12841;DHT22;6487;48.626;12.486;2023-03-31T07:58:44;9.60;99.90
12841;DHT22;6487;48.626;12.486;2023-03-31T08:01:13;9.70;99.90
12841;DHT22;6487;48.626;12.486;2023-03-31T08:03:45;9.60;99.90
12841;DHT22;6487;48.626;12.486;2023-03-31T08:06:17;9.70;99.90
12841;DHT22;6487;48.626;12.486;2023-03-31T08:08:46;9.60;99.90
12841;DHT22;6487;48.626;12.486;2023-03-31T08:11:14;9.50;99.90
12841;DHT22;6487;48.626;12.486;2023-03-31T08:13:44;9.50;99.90
12841;DHT22;6487;48.626;12.486;2023-03-31T08:16:12;9.50;99.90
12841;DHT22;6487;48.626;12.486;2023-03-31T08:18:41;9.60;99.90
12841;DHT22;6487;48.626;12.486;2023-03-31T08:21:09;9.60;99.90
12841;DHT22;6487;48.626;12.486;2023-03-31T08:23:38;9.60;99.90
12841;DHT22;6487;48.626;12.486;2023-03-31T08:26:08;9.40;99.90
12841;DHT22;6487;48.626;12.486;2023-03-31T08:28:37;9.40;99.90
12841;DHT22;6487;48.626;12.486;2023-03-31T08:31:08;9.40;99.90
12841;DHT22;6487;48.626;12.486;2023-03-31T08:33:37;9.40;99.90
12841;DHT22;6487;48.626;12.486;2023-03-31T08:36:07;9.40;99.90
12841;DHT22;6487;48.626;12.486;2023-03-31T08:38:37;9.40;99.90
12841;DHT22;6487;48.626;12.486;2023-03-31T08:41:30;9.60;99.90
12841;DHT22;6487;48.626;12.486;2023-03-31T08:44:06;9.60;99.90
12841;DHT22;6487;48.626;12.486;2023-03-31T08:46:40;9.60;99.90
12841;DHT22;6487;48.626;12.486;2023-03-31T08:49:13;9.70;99.90
12841;DHT22;6487;48.626;12.486;2023-03-31T08:51:46;9.80;99.90
12841;DHT22;6487;48.626;12.486;2023-03-31T08:54:20;9.80;99.90
12841;DHT22;6487;48.626;12.486;2023-03-31T08:56:55;9.80;99.90
12841;DHT22;6487;48.626;12.486;2023-03-31T08:59:27;9.80;99.90
12841;DHT22;6487;48.626;12.486;2023-03-31T09:02:04;9.70;99.90
12841;DHT22;6487;48.626;12.486;2023-03-31T09:04:54;9.70;99.90
12841;DHT22;6487;48.626;12.486;2023-03-31T09:07:46;9.70;99.90
12841;DHT22;6487;48.626;12.486;2023-03-31T09:10:37;9.80;99.90
12841;DHT22;6487;48.626;12.486;2023-03-31T09:13:25;9.90;99.90
12841;DHT22;6487;48.626;12.486;2023-03-31T09:16:04;9.90;99.90
12841;DHT22;6487;48.626;12.486;2023-03-31T09:18:43;10.00;99.90
12841;DHT22;6487;48.626;12.486;2023-03-31T09:21:17;10.00;99.90
12841;DHT22;6487;48.626;12.486;2023-03-31T09:23:54;10.00;99.90
12841;DHT22;6487;48.626;12.486;2023-03-31T09:26:31;10.00;99.90
12841;DHT22;6487;48.626;12.486;2023-03-31T09:29:05;10.00;99.90
12841;DHT22;6487;48.626;12.486;2023-03-31T09:31:42;10.10;99.90
12841;DHT22;6487;48.626;12.486;2023-03-31T09:34:15;10.20;99.90
12841;DHT22;6487;48.626;12.486;2023-03-31T09:36:44;10.20;99.90
12841;DHT22;6487;48.626;12.486;2023-03-31T09:39:13;10.30;99.90
12841;DHT22;6487;48.626;12.486;2023-03-31T09:41:44;10.30;99.90
12841;DHT22;6487;48.626;12.486;2023-03-31T09:44:23;10.40;99.90
12841;DHT22;6487;48.626;12.486;2023-03-31T09:46:54;10.40;99.90
12841;DHT22;6487;48.626;12.486;2023-03-31T09:49:27;10.30;99.90
12841;DHT22;6487;48.626;12.486;2023-03-31T09:52:02;10.20;99.90
12841;DHT22;6487;48.626;12.486;2023-03-31T09:54:36;10.30;99.90
12841;DHT22;6487;48.626;12.486;2023-03-31T09:57:22;10.40;99.90
12841;DHT22;6487;48.626;12.486;2023-03-31T09:59:53;10.50;99.90
12841;DHT22;6487;48.626;12.486;2023-03-31T10:02:35;10.70;99.90
12841;DHT22;6487;48.626;12.486;2023-03-31T10:05:20;10.70;99.90
12841;DHT22;6487;48.626;12.486;2023-03-31T10:07:53;10.90;99.90
12841;DHT22;6487;48.626;12.486;2023-03-31T10:10:44;11.30;99.90
12841;DHT22;6487;48.626;12.486;2023-03-31T10:13:17;11.60;99.90
12841;DHT22;6487;48.626;12.486;2023-03-31T10:15:51;12.00;99.90
12841;DHT22;6487;48.626;12.486;2023-03-31T10:18:22;12.20;99.90
12841;DHT22;6487;48.626;12.486;2023-03-31T10:21:02;12.50;99.90
12841;DHT22;6487;48.626;12.486;2023-03-31T10:23:33;12.80;99.90
12841;DHT22;6487;48.626;12.486;2023-03-31T10:26:03;12.60;99.90
12841;DHT22;6487;48.626;12.486;2023-03-31T10:28:33;12.80;99.90
12841;DHT22;6487;48.626;12.486;2023-03-31T10:31:03;12.90;99.90
12841;DHT22;6487;48.626;12.486;2023-03-31T10:33:40;13.20;99.90
12841;DHT22;6487;48.626;12.486;2023-03-31T10:36:20;13.10;99.90
12841;DHT22;6487;48.626;12.486;2023-03-31T10:38:50;13.50;99.90
12841;DHT22;6487;48.626;12.486;2023-03-31T10:41:21;13.90;99.90
12841;DHT22;6487;48.626;12.486;2023-03-31T10:43:55;14.30;99.90
12841;DHT22;6487;48.626;12.486;2023-03-31T10:46:40;14.50;99.90
12841;DHT22;6487;48.626;12.486;2023-03-31T10:49:14;14.70;99.90
12841;DHT22;6487;48.626;12.486;2023-03-31T10:51:52;15.10;99.90
12841;DHT22;6487;48.626;12.486;2023-03-31T10:54:21;15.30;99.90
12841;DHT22;6487;48.626;12.486;2023-03-31T10:56:51;15.70;99.90
12841;DHT22;6487;48.626;12.486;2023-03-31T10:59:39;16.00;99.90
12841;DHT22;6487;48.626;12.486;2023-03-31T11:02:37;16.20;99.90
12841;DHT22;6487;48.626;12.486;2023-03-31T11:05:31;16.20;99.90
12841;DHT22;6487;48.626;12.486;2023-03-31T11:08:15;16.00;99.90
12841;DHT22;6487;48.626;12.486;2023-03-31T11:13:55;16.40;99.90
12841;DHT22;6487;48.626;12.486;2023-03-31T11:16:35;16.80;99.90
12841;DHT22;6487;48.626;12.486;2023-03-31T11:19:14;17.00;99.90
12841;DHT22;6487;48.626;12.486;2023-03-31T11:21:56;16.90;99.90
12841;DHT22;6487;48.626;12.486;2023-03-31T11:24:47;16.90;99.90
12841;DHT22;6487;48.626;12.486;2023-03-31T11:27:49;17.00;99.90
12841;DHT22;6487;48.626;12.486;2023-03-31T11:30:29;16.90;99.90
12841;DHT22;6487;48.626;12.486;2023-03-31T11:36:12;16.90;99.90
12841;DHT22;6487;48.626;12.486;2023-03-31T11:38:58;17.10;99.90
12841;DHT22;6487;48.626;12.486;2023-03-31T11:41:38;17.30;99.90
12841;DHT22;6487;48.626;12.486;2023-03-31T11:44:11;17.60;99.90
12841;DHT22;6487;48.626;12.486;2023-03-31T11:46:45;17.70;98.10
12841;DHT22;6487;48.626;12.486;2023-03-31T11:49:18;17.60;99.00
12841;DHT22;6487;48.626;12.486;2023-03-31T11:51:50;17.20;97.90
12841;DHT22;6487;48.626;12.486;2023-03-31T11:54:26;17.20;97.80
12841;DHT22;6487;48.626;12.486;2023-03-31T11:57:02;17.20;99.60
12841;DHT22;6487;48.626;12.486;2023-03-31T11:59:34;17.20;98.10
12841;DHT22;6487;48.626;12.486;2023-03-31T12:02:09;17.00;97.90
12841;DHT22;6487;48.626;12.486;2023-03-31T12:04:43;17.00;98.30
12841;DHT22;6487;48.626;12.486;2023-03-31T12:07:21;16.90;97.90
12841;DHT22;6487;48.626;12.486;2023-03-31T12:09:56;16.90;98.90
12841;DHT22;6487;48.626;12.486;2023-03-31T12:12:34;16.90;99.40
12841;DHT22;6487;48.626;12.486;2023-03-31T12:15:13;16.60;99.90
12841;DHT22;6487;48.626;12.486;2023-03-31T12:17:49;16.80;99.90
12841;DHT22;6487;48.626;12.486;2023-03-31T12:20:28;16.90;99.80
12841;DHT22;6487;48.626;12.486;2023-03-31T12:23:00;16.80;99.90
12841;DHT22;6487;48.626;12.486;2023-03-31T12:25:41;16.90;99.80
12841;DHT22;6487;48.626;12.486;2023-03-31T12:28:14;16.90;99.50
12841;DHT22;6487;48.626;12.486;2023-03-31T12:30:44;16.90;98.70
12841;DHT22;6487;48.626;12.486;2023-03-31T12:33:19;17.00;99.30
12841;DHT22;6487;48.626;12.486;2023-03-31T12:36:04;17.10;99.90
12841;DHT22;6487;48.626;12.486;2023-03-31T12:38:54;17.20;99.80
12841;DHT22;6487;48.626;12.486;2023-03-31T12:41:31;17.20;98.40
12841;DHT22;6487;48.626;12.486;2023-03-31T12:44:15;17.40;99.90
12841;DHT22;6487;48.626;12.486;2023-03-31T12:47:14;17.10;98.90
12841;DHT22;6487;48.626;12.486;2023-03-31T12:50:12;17.20;99.50
12841;DHT22;6487;48.626;12.486;2023-03-31T12:52:48;17.20;99.30
12841;DHT22;6487;48.626;12.486;2023-03-31T12:55:30;17.10;99.90
12841;DHT22;6487;48.626;12.486;2023-03-31T12:58:41;17.10;99.30
12841;DHT22;6487;48.626;12.486;2023-03-31T13:01:18;17.10;99.70
12841;DHT22;6487;48.626;12.486;2023-03-31T13:07:00;17.00;99.00
12841;DHT22;6487;48.626;12.486;2023-03-31T13:09:47;16.80;97.50
12841;DHT22;6487;48.626;12.486;2023-03-31T13:12:21;16.70;97.20
12841;DHT22;6487;48.626;12.486;2023-03-31T13:14:52;16.50;97.20
12841;DHT22;6487;48.626;12.486;2023-03-31T13:17:28;16.60;97.50
12841;DHT22;6487;48.626;12.486;2023-03-31T13:20:16;16.60;97.10
12841;DHT22;6487;48.626;12.486;2023-03-31T13:23:00;16.50;96.90
12841;DHT22;6487;48.626;12.486;2023-03-31T13:25:48;16.40;96.60
12841;DHT22;6487;48.626;12.486;2023-03-31T13:31:12;15.90;96.60
12841;DHT22;6487;48.626;12.486;2023-03-31T13:33:53;15.80;96.90
12841;DHT22;6487;48.626;12.486;2023-03-31T13:36:46;15.70;97.30
12841;DHT22;6487;48.626;12.486;2023-03-31T13:42:59;15.50;97.80
12841;DHT22;6487;48.626;12.486;2023-03-31T13:45:49;15.60;97.80
12841;DHT22;6487;48.626;12.486;2023-03-31T13:48:45;15.70;98.70
12841;DHT22;6487;48.626;12.486;2023-03-31T13:51:34;15.70;99.50
12841;DHT22;6487;48.626;12.486;2023-03-31T13:57:43;15.70;98.40
12841;DHT22;6487;48.626;12.486;2023-03-31T14:00:33;15.80;99.10
12841;DHT22;6487;48.626;12.486;2023-03-31T14:06:19;15.60;98.70
12841;DHT22;6487;48.626;12.486;2023-03-31T14:08:55;15.50;98.70
12841;DHT22;6487;48.626;12.486;2023-03-31T14:11:26;15.40;99.40
12841;DHT22;6487;48.626;12.486;2023-03-31T14:14:04;15.00;99.90
12841;DHT22;6487;48.626;12.486;2023-03-31T14:16:36;14.60;99.90
12841;DHT22;6487;48.626;12.486;2023-03-31T14:19:22;14.70;99.90
12841;DHT22;6487;48.626;12.486;2023-03-31T14:22:16;14.50;99.90
12841;DHT22;6487;48.626;12.486;2023-03-31T14:25:06;13.90;99.90
12841;DHT22;6487;48.626;12.486;2023-03-31T14:27:49;14.10;99.90
12841;DHT22;6487;48.626;12.486;2023-03-31T14:30:32;14.10;99.90
12841;DHT22;6487;48.626;12.486;2023-03-31T14:33:19;14.40;99.60
12841;DHT22;6487;48.626;12.486;2023-03-31T14:35:56;14.40;99.80
12841;DHT22;6487;48.626;12.486;2023-03-31T14:38:29;14.80;99.90
12841;DHT22;6487;48.626;12.486;2023-03-31T14:40:59;14.80;99.90
12841;DHT22;6487;48.626;12.486;2023-03-31T14:43:29;15.00;99.90
12841;DHT22;6487;48.626;12.486;2023-03-31T14:46:01;15.10;98.60
12841;DHT22;6487;48.626;12.486;2023-03-31T14:48:32;15.10;99.60
12841;DHT22;6487;48.626;12.486;2023-03-31T14:51:07;15.10;98.50
12841;DHT22;6487;48.626;12.486;2023-03-31T14:53:37;15.00;97.40
12841;DHT22;6487;48.626;12.486;2023-03-31T14:56:08;15.00;96.90
12841;DHT22;6487;48.626;12.486;2023-03-31T14:58:42;15.00;97.80
12841;DHT22;6487;48.626;12.486;2023-03-31T15:01:14;14.90;97.60
12841;DHT22;6487;48.626;12.486;2023-03-31T15:03:44;14.80;97.90
12841;DHT22;6487;48.626;12.486;2023-03-31T15:06:15;14.80;98.70
12841;DHT22;6487;48.626;12.486;2023-03-31T15:08:43;14.80;99.20
12841;DHT22;6487;48.626;12.486;2023-03-31T15:11:15;14.70;99.40
12841;DHT22;6487;48.626;12.486;2023-03-31T15:13:48;14.70;99.40
12841;DHT22;6487;48.626;12.486;2023-03-31T15:16:36;14.60;97.80
12841;DHT22;6487;48.626;12.486;2023-03-31T15:19:13;14.50;97.40
12841;DHT22;6487;48.626;12.486;2023-03-31T15:21:43;14.50;97.30
12841;DHT22;6487;48.626;12.486;2023-03-31T15:24:12;14.70;98.30
12841;DHT22;6487;48.626;12.486;2023-03-31T15:26:45;14.60;98.10
12841;DHT22;6487;48.626;12.486;2023-03-31T15:29:19;14.80;98.90
12841;DHT22;6487;48.626;12.486;2023-03-31T15:31:50;14.90;97.20
12841;DHT22;6487;48.626;12.486;2023-03-31T15:34:21;15.00;99.90
12841;DHT22;6487;48.626;12.486;2023-03-31T15:36:55;15.10;99.80
12841;DHT22;6487;48.626;12.486;2023-03-31T15:39:24;15.10;99.00
12841;DHT22;6487;48.626;12.486;2023-03-31T15:41:56;15.10;98.00
12841;DHT22;6487;48.626;12.486;2023-03-31T15:44:35;15.00;98.00
12841;DHT22;6487;48.626;12.486;2023-03-31T15:47:10;14.90;99.90
12841;DHT22;6487;48.626;12.486;2023-03-31T15:49:53;14.80;99.90
12841;DHT22;6487;48.626;12.486;2023-03-31T15:52:29;14.80;99.50
12841;DHT22;6487;48.626;12.486;2023-03-31T15:54:59;14.80;99.90
12841;DHT22;6487;48.626;12.486;2023-03-31T15:57:34;14.80;99.90
12841;DHT22;6487;48.626;12.486;2023-03-31T16:00:04;14.80;99.90
12841;DHT22;6487;48.626;12.486;2023-03-31T16:02:38;14.80;99.90
12841;DHT22;6487;48.626;12.486;2023-03-31T16:05:23;14.70;99.90
12841;DHT22;6487;48.626;12.486;2023-03-31T16:08:11;14.60;99.90
12841;DHT22;6487;48.626;12.486;2023-03-31T16:10:42;14.40;98.90
12841;DHT22;6487;48.626;12.486;2023-03-31T16:13:16;14.30;99.00
12841;DHT22;6487;48.626;12.486;2023-03-31T16:15:50;14.30;99.90
12841;DHT22;6487;48.626;12.486;2023-03-31T16:18:26;14.20;98.80
12841;DHT22;6487;48.626;12.486;2023-03-31T16:20:59;14.10;99.00
12841;DHT22;6487;48.626;12.486;2023-03-31T16:23:30;14.10;99.90
12841;DHT22;6487;48.626;12.486;2023-03-31T16:26:01;14.20;99.90
12841;DHT22;6487;48.626;12.486;2023-03-31T16:28:35;14.20;99.90
12841;DHT22;6487;48.626;12.486;2023-03-31T16:31:27;14.20;99.90
12841;DHT22;6487;48.626;12.486;2023-03-31T16:34:00;14.20;99.90
12841;DHT22;6487;48.626;12.486;2023-03-31T16:36:30;14.20;99.90
12841;DHT22;6487;48.626;12.486;2023-03-31T16:38:58;14.10;99.90
12841;DHT22;6487;48.626;12.486;2023-03-31T16:41:31;14.10;99.90
12841;DHT22;6487;48.626;12.486;2023-03-31T16:44:01;14.10;99.90
12841;DHT22;6487;48.626;12.486;2023-03-31T16:46:30;14.00;99.90
12841;DHT22;6487;48.626;12.486;2023-03-31T16:48:58;13.80;99.90
12841;DHT22;6487;48.626;12.486;2023-03-31T16:51:27;13.70;99.90
12841;DHT22;6487;48.626;12.486;2023-03-31T16:53:55;13.50;99.90
12841;DHT22;6487;48.626;12.486;2023-03-31T16:56:25;13.20;99.90
12841;DHT22;6487;48.626;12.486;2023-03-31T16:58:54;13.30;99.30
12841;DHT22;6487;48.626;12.486;2023-03-31T17:01:23;13.10;99.90